createdAt,value
2024-03-16T00:00:05.638Z,197.70
2024-03-16T00:01:05.708Z,199.64
2024-03-16T00:02:05.686Z,198.58
2024-03-16T00:03:05.720Z,198.59
2024-03-16T00:04:05.916Z,196.65
2024-03-16T00:05:05.774Z,198.19
2024-03-16T00:06:05.738Z,199.18
2024-03-16T00:07:05.866Z,197.77
2024-03-16T00:08:05.816Z,196.54
2024-03-16T00:09:05.958Z,198.30
2024-03-16T00:10:05.824Z,199.89
2024-03-16T00:11:05.813Z,198.94
2024-03-16T00:12:05.827Z,197.96
2024-03-16T00:13:05.985Z,197.79
2024-03-16T00:14:05.880Z,197.34
2024-03-16T00:15:05.859Z,199.04
2024-03-16T00:16:05.996Z,199.97
2024-03-16T00:17:05.944Z,198.52
2024-03-16T00:18:05.951Z,198.89
2024-03-16T00:19:06.002Z,196.01
2024-03-16T00:20:05.958Z,196.87
2024-03-16T00:21:05.978Z,197.36
2024-03-16T00:22:06.107Z,197.99
2024-03-16T00:23:06.045Z,197.96
2024-03-16T00:24:06.081Z,196.11
2024-03-16T00:25:06.104Z,199.48
2024-03-16T00:26:06.168Z,196.89
2024-03-16T00:27:06.085Z,198.54
2024-03-16T00:28:06.237Z,197.09
2024-03-16T00:29:06.101Z,200.00
2024-03-16T00:30:06.185Z,198.67
2024-03-16T00:31:07.413Z,197.68
2024-03-16T00:32:06.212Z,198.79
2024-03-16T00:33:06.215Z,195.72
2024-03-16T00:34:06.358Z,198.65
2024-03-16T00:35:06.247Z,199.79
2024-03-16T00:36:06.322Z,198.34
2024-03-16T00:37:06.503Z,199.09
2024-03-16T00:38:06.310Z,198.95
2024-03-16T00:39:06.363Z,199.31
2024-03-16T00:40:06.472Z,199.31
2024-03-16T00:41:06.367Z,197.70
2024-03-16T00:42:06.412Z,199.79
2024-03-16T00:43:06.547Z,197.18
2024-03-16T00:44:06.421Z,198.39
2024-03-16T00:45:06.500Z,198.64
2024-03-16T00:46:06.717Z,198.11
2024-03-16T00:47:06.551Z,199.05
2024-03-16T00:48:06.590Z,198.58
2024-03-16T00:49:06.807Z,198.41
2024-03-16T00:50:06.537Z,198.75
2024-03-16T00:51:06.565Z,199.09
2024-03-16T00:52:06.754Z,198.82
2024-03-16T00:53:06.579Z,198.73
2024-03-16T00:54:06.658Z,197.61
2024-03-16T00:55:06.710Z,197.83
2024-03-16T00:56:06.675Z,197.93
2024-03-16T00:57:06.679Z,198.66
2024-03-16T00:58:06.943Z,198.62
2024-03-16T00:59:06.854Z,199.55
2024-03-16T01:00:06.778Z,198.92
2024-03-16T01:01:07.000Z,198.65
2024-03-16T01:02:06.867Z,199.50
2024-03-16T01:03:06.949Z,198.61
2024-03-16T01:04:07.070Z,198.37
2024-03-16T01:05:06.932Z,198.68
2024-03-16T01:06:06.952Z,198.95
2024-03-16T01:07:07.017Z,198.48
2024-03-16T01:08:06.940Z,199.80
2024-03-16T01:09:07.048Z,198.35
2024-03-16T01:10:07.189Z,198.41
2024-03-16T01:11:07.285Z,197.16
2024-03-16T01:12:07.097Z,199.25
2024-03-16T01:13:07.162Z,197.86
2024-03-16T01:14:07.122Z,199.08
2024-03-16T01:15:07.145Z,199.69
2024-03-16T01:16:07.253Z,198.32
2024-03-16T01:17:07.250Z,198.39
2024-03-16T01:18:07.295Z,198.88
2024-03-16T01:19:07.559Z,199.23
2024-03-16T01:20:07.253Z,198.50
2024-03-16T01:21:07.389Z,198.18
2024-03-16T01:22:07.387Z,198.27
2024-03-16T01:23:07.359Z,199.06
2024-03-16T01:24:07.341Z,198.75
2024-03-16T01:25:07.496Z,199.17
2024-03-16T01:26:07.498Z,199.26
2024-03-16T01:27:07.411Z,199.00
2024-03-16T01:28:07.574Z,199.18
2024-03-16T01:29:07.531Z,199.40
2024-03-16T01:30:08.332Z,199.54
2024-03-16T01:31:07.562Z,200.00
2024-03-16T01:32:07.563Z,198.94
2024-03-16T01:33:07.610Z,198.54
2024-03-16T01:34:07.685Z,199.52
2024-03-16T01:35:07.662Z,198.81
2024-03-16T01:36:07.701Z,198.46
2024-03-16T01:37:07.747Z,198.81
2024-03-16T01:38:07.862Z,198.50
2024-03-16T01:39:07.771Z,199.61
2024-03-16T01:40:08.014Z,197.67
2024-03-16T01:41:07.812Z,198.73
2024-03-16T01:42:07.833Z,199.57
2024-03-16T01:43:07.997Z,198.51
2024-03-16T01:44:07.923Z,198.71
2024-03-16T01:45:08.083Z,198.64
2024-03-16T01:46:08.071Z,198.98
2024-03-16T01:47:08.838Z,199.08
2024-03-16T01:48:08.015Z,199.57
2024-03-16T01:49:08.137Z,199.38
2024-03-16T01:50:08.111Z,199.48
2024-03-16T01:51:08.456Z,199.65
2024-03-16T01:52:08.147Z,198.93
2024-03-16T01:53:08.138Z,199.79
2024-03-16T01:54:08.279Z,197.43
2024-03-16T01:55:08.381Z,199.24
2024-03-16T01:56:08.210Z,199.24
2024-03-16T01:57:08.303Z,198.93
2024-03-16T01:58:08.615Z,199.92
2024-03-16T01:59:08.292Z,199.42
2024-03-16T02:00:08.359Z,198.84
2024-03-16T02:01:08.434Z,198.74
2024-03-16T02:02:08.465Z,199.26
2024-03-16T02:03:08.456Z,198.71
2024-03-16T02:04:08.486Z,198.79
2024-03-16T02:05:08.506Z,199.00
2024-03-16T02:06:08.508Z,199.18
2024-03-16T02:07:08.592Z,199.37
2024-03-16T02:08:08.545Z,198.95
2024-03-16T02:09:08.643Z,199.00
2024-03-16T02:10:08.748Z,199.07
2024-03-16T02:11:08.681Z,199.09
2024-03-16T02:12:08.728Z,199.03
2024-03-16T02:13:08.787Z,200.05
2024-03-16T02:14:08.762Z,199.34
2024-03-16T02:15:08.814Z,198.35
2024-03-16T02:16:08.902Z,198.43
2024-03-16T02:17:08.858Z,199.34
2024-03-16T02:18:08.930Z,198.45
2024-03-16T02:19:08.995Z,198.87
2024-03-16T02:20:08.952Z,198.45
2024-03-16T02:21:08.988Z,198.81
2024-03-16T02:22:09.058Z,198.55
2024-03-16T02:23:09.082Z,199.51
2024-03-16T02:24:09.142Z,199.20
2024-03-16T02:25:09.287Z,199.46
2024-03-16T02:26:09.206Z,199.01
2024-03-16T02:27:09.249Z,200.00
2024-03-16T02:28:09.423Z,198.63
2024-03-16T02:29:09.282Z,198.82
2024-03-16T02:30:09.357Z,199.32
2024-03-16T02:31:09.407Z,199.24
2024-03-16T02:32:09.379Z,199.79
2024-03-16T02:33:09.472Z,198.79
2024-03-16T02:34:09.603Z,198.79
2024-03-16T02:35:09.525Z,199.12
2024-03-16T02:36:09.552Z,198.27
2024-03-16T02:37:09.670Z,198.79
2024-03-16T02:38:09.610Z,199.55
2024-03-16T02:39:09.698Z,199.63
2024-03-16T02:40:09.756Z,199.06
2024-03-16T02:41:09.754Z,198.23
2024-03-16T02:42:09.761Z,198.89
2024-03-16T02:43:09.813Z,199.18
2024-03-16T02:44:09.924Z,199.41
2024-03-16T02:45:09.820Z,198.46
2024-03-16T02:46:09.906Z,198.11
2024-03-16T02:47:09.947Z,198.45
2024-03-16T02:48:09.983Z,199.14
2024-03-16T02:49:10.040Z,198.57
2024-03-16T02:50:10.024Z,198.89
2024-03-16T02:51:10.080Z,199.27
2024-03-16T02:52:10.230Z,198.98
2024-03-16T02:53:10.137Z,200.00
2024-03-16T02:54:10.193Z,198.81
2024-03-16T02:55:10.297Z,199.30
2024-03-16T02:56:10.227Z,198.60
2024-03-16T02:57:10.272Z,198.93
2024-03-16T02:58:10.358Z,198.74
2024-03-16T02:59:10.367Z,199.68
2024-03-16T03:00:10.379Z,198.26
2024-03-16T03:01:10.546Z,199.08
2024-03-16T03:02:10.460Z,199.01
2024-03-16T03:03:10.513Z,199.25
2024-03-16T03:04:10.606Z,198.93
2024-03-16T03:05:10.567Z,198.10
2024-03-16T03:06:10.649Z,198.57
2024-03-16T03:07:10.715Z,198.25
2024-03-16T03:08:10.699Z,198.29
2024-03-16T03:09:10.699Z,199.34
2024-03-16T03:10:10.855Z,198.24
2024-03-16T03:11:10.777Z,199.12
2024-03-16T03:12:10.836Z,199.25
2024-03-16T03:13:10.939Z,200.00
2024-03-16T03:14:10.859Z,198.89
2024-03-16T03:15:10.946Z,198.70
2024-03-16T03:16:11.003Z,199.00
2024-03-16T03:17:10.962Z,198.51
2024-03-16T03:18:11.066Z,199.20
2024-03-16T03:19:11.285Z,199.14
2024-03-16T03:20:11.621Z,199.70
2024-03-16T03:21:11.155Z,198.87
2024-03-16T03:22:11.237Z,199.74
2024-03-16T03:23:11.254Z,198.71
2024-03-16T03:24:11.251Z,198.25
2024-03-16T03:25:11.674Z,198.95
2024-03-16T03:26:11.326Z,198.39
2024-03-16T03:27:11.390Z,199.14
2024-03-16T03:28:11.466Z,198.73
2024-03-16T03:29:11.426Z,198.87
2024-03-16T03:30:11.494Z,198.80
2024-03-16T03:31:11.549Z,199.01
2024-03-16T03:32:11.559Z,198.92
2024-03-16T03:33:11.654Z,198.59
2024-03-16T03:34:11.676Z,199.27
2024-03-16T03:35:11.665Z,199.21
2024-03-16T03:36:11.692Z,198.87
2024-03-16T03:37:11.813Z,199.16
2024-03-16T03:38:11.770Z,199.10
2024-03-16T03:39:11.792Z,198.18
2024-03-16T03:40:11.910Z,198.80
2024-03-16T03:41:11.944Z,199.13
2024-03-16T03:42:11.956Z,199.39
2024-03-16T03:43:12.074Z,199.65
2024-03-16T03:44:12.092Z,199.48
2024-03-16T03:45:12.238Z,199.62
2024-03-16T03:46:12.207Z,199.02
2024-03-16T03:47:12.186Z,198.81
2024-03-16T03:48:12.259Z,199.38
2024-03-16T03:49:12.819Z,199.25
2024-03-16T03:50:12.324Z,199.80
2024-03-16T03:51:12.320Z,198.87
2024-03-16T03:52:12.473Z,200.00
2024-03-16T03:53:12.425Z,198.34
2024-03-16T03:54:12.442Z,198.81
2024-03-16T03:55:12.535Z,198.28
2024-03-16T03:56:12.538Z,199.36
2024-03-16T03:57:12.605Z,198.82
2024-03-16T03:58:12.755Z,199.56
2024-03-16T03:59:12.738Z,198.87
2024-03-16T04:00:12.746Z,198.85
2024-03-16T04:01:12.914Z,198.81
2024-03-16T04:02:12.861Z,198.76
2024-03-16T04:03:12.893Z,199.20
2024-03-16T04:04:12.969Z,199.39
2024-03-16T04:05:12.923Z,198.98
2024-03-16T04:06:20.099Z,50.00
2024-03-16T04:07:20.110Z,50.00
2024-03-16T04:08:20.177Z,50.00
2024-03-16T04:09:20.076Z,50.00
2024-03-16T04:10:20.059Z,50.00
2024-03-16T04:11:20.123Z,50.00
2024-03-16T04:12:20.110Z,50.48
2024-03-16T04:13:20.093Z,51.01
2024-03-16T04:14:20.112Z,50.62
2024-03-16T04:15:20.132Z,50.00
2024-03-16T04:16:20.196Z,50.94
2024-03-16T04:17:20.128Z,50.77
2024-03-16T04:18:20.142Z,50.47
2024-03-16T04:19:20.254Z,50.77
2024-03-16T04:20:20.148Z,50.83
2024-03-16T04:21:20.142Z,50.77
2024-03-16T04:22:20.171Z,50.12
2024-03-16T04:23:20.117Z,51.43
2024-03-16T04:24:20.205Z,51.53
2024-03-16T04:25:20.153Z,51.57
2024-03-16T04:26:20.139Z,50.70
2024-03-16T04:27:20.143Z,50.69
2024-03-16T04:28:20.113Z,51.39
2024-03-16T04:29:20.086Z,51.14
2024-03-16T04:30:20.136Z,50.54
2024-03-16T04:31:27.334Z,50.00
2024-03-16T04:32:27.290Z,50.00
2024-03-16T04:33:27.304Z,50.00
2024-03-16T04:34:27.311Z,50.00
2024-03-16T04:35:27.317Z,50.00
2024-03-16T04:36:27.430Z,50.10
2024-03-16T04:37:27.290Z,50.22
2024-03-16T04:38:27.322Z,51.87
2024-03-16T04:39:27.315Z,50.15
2024-03-16T04:40:27.302Z,51.24
2024-03-16T04:41:27.764Z,50.93
2024-03-16T04:42:27.327Z,51.03
2024-03-16T04:43:27.497Z,50.21
2024-03-16T04:44:27.318Z,50.75
2024-03-16T04:45:27.354Z,50.00
2024-03-16T04:46:27.292Z,50.63
2024-03-16T04:47:27.314Z,50.70
2024-03-16T04:48:27.389Z,50.40
2024-03-16T04:49:27.278Z,51.21
2024-03-16T04:50:27.322Z,50.90
2024-03-16T04:51:27.375Z,50.80
2024-03-16T04:52:27.336Z,50.76
2024-03-16T04:53:27.316Z,51.16
2024-03-16T04:54:27.332Z,50.84
2024-03-16T04:55:27.292Z,50.79
2024-03-16T04:56:27.358Z,51.62
2024-03-16T04:57:27.323Z,51.03
2024-03-16T04:58:27.299Z,51.60
2024-03-16T04:59:27.280Z,50.85
2024-03-16T05:00:27.495Z,51.16
2024-03-16T05:01:27.572Z,50.52
2024-03-16T05:02:27.390Z,51.00
2024-03-16T05:03:27.473Z,50.82
2024-03-16T05:04:27.490Z,51.65
2024-03-16T05:05:27.557Z,51.85
2024-03-16T05:06:27.668Z,51.09
2024-03-16T05:07:27.651Z,51.76
2024-03-16T05:08:27.686Z,51.69
2024-03-16T05:09:27.775Z,51.96
2024-03-16T05:10:28.024Z,51.88
2024-03-16T05:11:27.883Z,51.95
2024-03-16T05:12:27.936Z,51.13
2024-03-16T05:13:29.616Z,51.20
2024-03-16T05:14:28.008Z,51.77
2024-03-16T05:15:28.004Z,52.00
2024-03-16T05:16:27.947Z,51.75
2024-03-16T05:17:27.953Z,51.45
2024-03-16T05:18:27.982Z,51.08
2024-03-16T05:19:27.949Z,50.73
2024-03-16T05:20:27.974Z,51.55
2024-03-16T05:21:27.984Z,51.72
2024-03-16T05:22:28.047Z,51.15
2024-03-16T05:23:28.000Z,52.66
2024-03-16T05:24:27.939Z,52.37
2024-03-16T05:25:27.962Z,52.13
2024-03-16T05:26:27.985Z,51.56
2024-03-16T05:27:28.053Z,52.93
2024-03-16T05:28:28.271Z,51.21
2024-03-16T05:29:27.979Z,51.88
2024-03-16T05:30:28.092Z,51.71
2024-03-16T05:31:27.987Z,52.52
2024-03-16T05:32:27.964Z,51.91
2024-03-16T05:33:27.985Z,52.29
2024-03-16T05:34:27.966Z,51.56
2024-03-16T05:35:27.984Z,51.81
2024-03-16T05:36:27.955Z,51.63
2024-03-16T05:37:30.813Z,52.14
2024-03-16T05:38:27.982Z,52.19
2024-03-16T05:39:28.012Z,52.21
2024-03-16T05:40:28.070Z,52.52
2024-03-16T05:41:28.000Z,52.45
2024-03-16T05:42:28.048Z,51.98
2024-03-16T05:43:27.984Z,52.18
2024-03-16T05:44:27.921Z,52.53
2024-03-16T05:45:28.059Z,52.74
2024-03-16T05:46:27.991Z,52.01
2024-03-16T05:47:28.001Z,51.97
2024-03-16T05:48:28.549Z,52.50
2024-03-16T05:49:28.342Z,52.66
2024-03-16T05:50:27.954Z,52.04
2024-03-16T05:51:28.012Z,52.79
2024-03-16T05:52:27.995Z,53.02
2024-03-16T05:53:28.079Z,52.84
2024-03-16T05:54:28.045Z,53.29
2024-03-16T05:55:27.989Z,53.00
2024-03-16T05:56:28.022Z,53.21
2024-03-16T05:57:28.043Z,52.21
2024-03-16T05:58:27.937Z,53.49
2024-03-16T05:59:28.025Z,51.36
2024-03-16T06:00:28.092Z,53.38
2024-03-16T06:01:28.757Z,53.40
2024-03-16T06:02:27.952Z,53.23
2024-03-16T06:03:28.033Z,53.10
2024-03-16T06:04:27.961Z,52.26
2024-03-16T06:05:28.029Z,54.09
2024-03-16T06:06:28.004Z,54.51
2024-03-16T06:07:27.971Z,53.81
2024-03-16T06:08:27.999Z,53.32
2024-03-16T06:09:28.025Z,54.51
2024-03-16T06:10:27.970Z,54.29
2024-03-16T06:11:28.112Z,54.11
2024-03-16T06:12:28.067Z,54.20
2024-03-16T06:13:28.009Z,54.12
2024-03-16T06:14:28.014Z,53.08
2024-03-16T06:15:28.018Z,53.39
2024-03-16T06:16:27.979Z,51.56
2024-03-16T06:17:28.092Z,51.45
2024-03-16T06:18:28.078Z,50.66
2024-03-16T06:19:28.014Z,53.56
2024-03-16T06:20:28.017Z,51.32
2024-03-16T06:21:28.029Z,51.02
2024-03-16T06:22:28.006Z,53.63
2024-03-16T06:23:28.062Z,57.57
2024-03-16T06:24:28.033Z,55.06
2024-03-16T06:25:28.030Z,57.74
2024-03-16T06:26:28.012Z,57.08
2024-03-16T06:27:28.009Z,57.45
2024-03-16T06:28:28.001Z,58.11
2024-03-16T06:29:27.991Z,56.04
2024-03-16T06:30:28.271Z,55.44
2024-03-16T06:31:28.516Z,59.15
2024-03-16T06:32:28.070Z,57.41
2024-03-16T06:33:28.010Z,54.45
2024-03-16T06:34:28.052Z,56.23
2024-03-16T06:35:28.078Z,57.63
2024-03-16T06:36:28.086Z,56.27
2024-03-16T06:37:28.013Z,56.30
2024-03-16T06:38:28.021Z,56.16
2024-03-16T06:39:28.030Z,55.47
2024-03-16T06:40:28.022Z,56.35
2024-03-16T06:41:28.047Z,56.02
2024-03-16T06:42:28.119Z,55.81
2024-03-16T06:43:28.025Z,55.39
2024-03-16T06:44:28.021Z,56.21
2024-03-16T06:45:28.209Z,56.26
2024-03-16T06:46:28.026Z,55.52
2024-03-16T06:47:28.000Z,56.14
2024-03-16T06:48:28.067Z,56.44
2024-03-16T06:49:28.036Z,56.55
2024-03-16T06:50:28.054Z,55.82
2024-03-16T06:51:28.117Z,55.21
2024-03-16T06:52:28.089Z,55.53
2024-03-16T06:53:28.070Z,55.21
2024-03-16T06:54:28.216Z,55.67
2024-03-16T06:55:28.193Z,54.64
2024-03-16T06:56:28.190Z,54.89
2024-03-16T06:57:28.285Z,55.67
2024-03-16T06:58:28.256Z,55.86
2024-03-16T06:59:28.384Z,56.57
2024-03-16T07:00:28.531Z,53.32
2024-03-16T07:01:28.468Z,56.26
2024-03-16T07:02:28.402Z,55.80
2024-03-16T07:03:28.590Z,55.15
2024-03-16T07:04:28.418Z,53.88
2024-03-16T07:05:28.441Z,55.63
2024-03-16T07:06:28.660Z,52.48
2024-03-16T07:07:28.510Z,51.53
2024-03-16T07:08:28.509Z,55.38
2024-03-16T07:09:29.557Z,56.35
2024-03-16T07:10:28.614Z,56.22
2024-03-16T07:11:28.569Z,52.63
2024-03-16T07:12:28.654Z,54.06
2024-03-16T07:13:28.598Z,55.15
2024-03-16T07:14:28.628Z,55.00
2024-03-16T07:15:28.729Z,55.48
2024-03-16T07:16:28.596Z,53.07
2024-03-16T07:17:28.754Z,54.13
2024-03-16T07:18:28.747Z,54.61
2024-03-16T07:19:28.657Z,56.86
2024-03-16T07:20:28.678Z,56.96
2024-03-16T07:22:28.744Z,55.26
2024-03-16T07:23:28.715Z,54.88
2024-03-16T07:24:28.792Z,55.69
2024-03-16T07:25:28.725Z,57.15
2024-03-16T07:26:28.736Z,53.69
2024-03-16T07:27:28.768Z,54.67
2024-03-16T07:28:28.754Z,54.31
2024-03-16T07:29:28.822Z,55.13
2024-03-16T07:30:28.857Z,55.26
2024-03-16T07:31:28.862Z,55.76
2024-03-16T07:32:28.835Z,57.65
2024-03-16T07:33:28.904Z,53.50
2024-03-16T07:34:28.919Z,53.29
2024-03-16T07:35:28.870Z,54.92
2024-03-16T07:36:28.914Z,53.25
2024-03-16T07:37:28.978Z,56.31
2024-03-16T07:38:28.893Z,55.60
2024-03-16T07:39:28.987Z,56.69
2024-03-16T07:40:29.035Z,54.92
2024-03-16T07:41:28.974Z,55.39
2024-03-16T07:42:29.011Z,55.18
2024-03-16T07:43:28.961Z,56.58
2024-03-16T07:44:29.033Z,52.82
2024-03-16T07:45:29.077Z,52.19
2024-03-16T07:46:29.002Z,52.62
2024-03-16T07:47:29.000Z,50.50
2024-03-16T07:48:29.312Z,50.76
2024-03-16T07:49:29.061Z,50.00
2024-03-16T07:50:29.079Z,50.91
2024-03-16T07:51:29.189Z,51.42
2024-03-16T07:52:29.129Z,50.98
2024-03-16T07:53:29.192Z,51.62
2024-03-16T07:54:29.238Z,51.72
2024-03-16T07:55:29.200Z,53.21
2024-03-16T07:56:29.252Z,53.77
2024-03-16T07:57:29.274Z,53.72
2024-03-16T07:58:29.285Z,51.05
2024-03-16T07:59:29.349Z,51.18
2024-03-16T08:00:29.441Z,52.71
2024-03-16T08:01:29.411Z,53.73
2024-03-16T08:02:29.354Z,51.93
2024-03-16T08:03:29.393Z,54.49
2024-03-16T08:04:29.362Z,56.26
2024-03-16T08:05:29.468Z,54.99
2024-03-16T08:06:29.447Z,56.60
2024-03-16T08:07:29.423Z,54.28
2024-03-16T08:08:29.535Z,57.42
2024-03-16T08:09:29.636Z,57.23
2024-03-16T08:10:29.770Z,56.48
2024-03-16T08:11:29.598Z,57.84
2024-03-16T08:12:31.780Z,56.91
2024-03-16T08:13:29.597Z,59.14
2024-03-16T08:14:29.595Z,61.11
2024-03-16T08:15:29.674Z,58.76
2024-03-16T08:16:29.682Z,60.99
2024-03-16T08:17:29.675Z,60.60
2024-03-16T08:18:29.778Z,62.68
2024-03-16T08:19:29.650Z,60.66
2024-03-16T08:20:29.632Z,64.61
2024-03-16T08:21:29.745Z,64.93
2024-03-16T08:22:29.732Z,63.56
2024-03-16T08:23:29.643Z,65.67
2024-03-16T08:24:29.755Z,64.95
2024-03-16T08:25:29.770Z,66.72
2024-03-16T08:26:29.698Z,67.32
2024-03-16T08:27:33.403Z,66.58
2024-03-16T08:28:30.703Z,66.04
2024-03-16T08:29:29.700Z,66.57
2024-03-16T08:30:29.756Z,66.12
2024-03-16T08:31:29.829Z,66.82
2024-03-16T08:32:29.749Z,65.69
2024-03-16T08:33:29.775Z,66.13
2024-03-16T08:34:29.771Z,67.01
2024-03-16T08:35:29.848Z,68.12
2024-03-16T08:36:29.727Z,66.30
2024-03-16T08:37:29.764Z,67.76
2024-03-16T08:38:29.760Z,66.85
2024-03-16T08:39:29.859Z,70.50
2024-03-16T08:40:29.736Z,66.89
2024-03-16T08:41:29.862Z,67.00
2024-03-16T08:42:29.802Z,65.26
2024-03-16T08:43:29.926Z,66.76
2024-03-16T08:44:51.313Z,50.00
2024-03-16T08:45:51.306Z,50.00
2024-03-16T08:46:51.263Z,50.00
2024-03-16T08:47:51.373Z,50.00
2024-03-16T08:48:51.397Z,50.00
2024-03-16T08:49:51.327Z,50.67
2024-03-16T08:50:51.300Z,49.54
2024-03-16T08:51:51.329Z,53.06
2024-03-16T08:52:51.329Z,52.29
2024-03-16T08:53:51.349Z,52.22
2024-03-16T08:54:51.488Z,53.90
2024-03-16T08:55:51.340Z,53.71
2024-03-16T08:56:51.350Z,55.01
2024-03-16T08:57:51.333Z,54.16
2024-03-16T08:58:51.275Z,53.65
2024-03-16T08:59:51.366Z,55.13
2024-03-16T09:00:51.340Z,54.53
2024-03-16T09:01:51.422Z,54.38
2024-03-16T09:02:51.300Z,55.31
2024-03-16T09:03:51.378Z,53.05
2024-03-16T09:04:52.672Z,51.62
2024-03-16T09:05:51.318Z,52.18
2024-03-16T09:06:51.362Z,51.97
2024-03-16T09:07:51.309Z,50.12
2024-03-16T09:08:51.305Z,50.58
2024-03-16T09:09:51.376Z,53.01
2024-03-16T09:10:51.319Z,52.06
2024-03-16T09:11:51.439Z,50.97
2024-03-16T09:12:51.361Z,53.07
2024-03-16T09:13:51.339Z,51.22
2024-03-16T09:14:51.346Z,51.09
2024-03-16T09:15:51.310Z,50.00
2024-03-16T09:16:51.359Z,50.00
2024-03-16T09:17:51.328Z,52.21
2024-03-16T09:18:51.358Z,50.02
2024-03-16T09:19:51.443Z,50.00
2024-03-16T09:20:51.390Z,50.75
2024-03-16T09:21:51.376Z,50.00
2024-03-16T09:22:51.332Z,51.39
2024-03-16T09:23:51.340Z,49.94
2024-03-16T09:24:51.380Z,50.55
2024-03-16T09:25:51.355Z,49.84
2024-03-16T09:26:51.333Z,52.07
2024-03-16T09:27:51.451Z,50.89
2024-03-16T09:28:51.482Z,51.36
2024-03-16T09:29:51.551Z,50.00
2024-03-16T09:30:55.021Z,53.18
2024-03-16T09:31:52.592Z,53.22
2024-03-16T09:32:51.675Z,54.28
2024-03-16T09:33:51.662Z,57.02
2024-03-16T09:34:51.620Z,62.10
2024-03-16T09:35:51.646Z,68.79
2024-03-16T09:36:51.640Z,68.08
2024-03-16T09:37:51.594Z,66.96
2024-03-16T09:38:51.612Z,61.23
2024-03-16T09:39:51.651Z,61.68
2024-03-16T09:40:51.630Z,58.22
2024-03-16T09:41:51.632Z,54.61
2024-03-16T09:42:51.681Z,52.29
2024-03-16T09:43:51.660Z,50.25
2024-03-16T09:44:51.666Z,50.41
2024-03-16T09:45:51.714Z,50.17
2024-03-16T09:46:51.665Z,52.19
2024-03-16T09:47:51.739Z,50.15
2024-03-16T09:48:51.800Z,48.74
2024-03-16T09:49:51.732Z,52.00
2024-03-16T09:50:51.762Z,52.65
2024-03-16T09:51:51.929Z,50.10
2024-03-16T09:52:51.836Z,52.69
2024-03-16T09:53:51.922Z,51.64
2024-03-16T09:54:52.022Z,50.00
2024-03-16T09:55:51.925Z,50.45
2024-03-16T09:56:53.066Z,50.29
2024-03-16T09:57:52.018Z,51.61
2024-03-16T09:58:52.059Z,50.17
2024-03-16T09:59:51.961Z,50.00
2024-03-16T10:00:52.005Z,51.74
2024-03-16T10:01:52.097Z,50.00
2024-03-16T10:02:52.025Z,50.00
2024-03-16T10:03:52.235Z,50.00
2024-03-16T10:04:52.134Z,50.04
2024-03-16T10:05:52.312Z,51.73
2024-03-16T10:06:52.319Z,49.79
2024-03-16T10:07:52.319Z,52.54
2024-03-16T10:08:52.955Z,52.05
2024-03-16T10:09:52.443Z,51.84
2024-03-16T10:10:52.444Z,53.86
2024-03-16T10:11:52.494Z,51.87
2024-03-16T10:12:52.573Z,50.00
2024-03-16T10:13:52.608Z,50.00
2024-03-16T10:14:52.665Z,52.60
2024-03-16T10:15:52.752Z,51.33
2024-03-16T10:16:52.789Z,51.43
2024-03-16T10:17:52.799Z,50.26
2024-03-16T10:18:52.908Z,50.62
2024-03-16T10:19:52.915Z,50.84
2024-03-16T10:20:53.008Z,52.45
2024-03-16T10:21:53.048Z,52.88
2024-03-16T10:22:53.079Z,51.62
2024-03-16T10:23:53.091Z,53.89
2024-03-16T10:24:53.167Z,52.76
2024-03-16T10:25:53.166Z,57.78
2024-03-16T10:26:53.248Z,68.38
2024-03-16T10:27:53.306Z,77.07
2024-03-16T10:28:53.348Z,81.74
2024-03-16T10:29:53.426Z,87.68
2024-03-16T10:30:53.524Z,89.67
2024-03-16T10:31:55.395Z,89.31
2024-03-16T10:32:53.612Z,92.33
2024-03-16T10:33:53.677Z,92.84
2024-03-16T10:34:53.734Z,94.15
2024-03-16T10:35:53.782Z,92.53
2024-03-16T10:36:53.953Z,91.51
2024-03-16T10:37:53.967Z,89.77
2024-03-16T10:38:53.965Z,93.54
2024-03-16T10:39:54.070Z,92.12
2024-03-16T10:40:54.006Z,89.94
2024-03-16T10:41:54.073Z,90.93
2024-03-16T10:42:54.095Z,93.42
2024-03-16T10:43:54.139Z,93.73
2024-03-16T10:44:56.723Z,95.08
2024-03-16T10:45:54.425Z,97.34
2024-03-16T10:46:54.429Z,94.24
2024-03-16T10:47:54.438Z,97.88
2024-03-16T10:48:54.441Z,104.37
2024-03-16T10:49:54.500Z,101.72
2024-03-16T10:50:57.530Z,102.42
2024-03-16T10:51:54.519Z,105.78
2024-03-16T10:52:54.499Z,103.69
2024-03-16T10:53:54.504Z,101.90
2024-03-16T10:54:54.476Z,108.83
2024-03-16T10:55:54.530Z,106.94
2024-03-16T10:56:57.258Z,104.23
2024-03-16T10:57:54.533Z,104.31
2024-03-16T10:58:54.503Z,105.19
2024-03-16T10:59:54.518Z,104.23
2024-03-16T11:00:54.537Z,104.58
2024-03-16T11:01:54.564Z,105.35
2024-03-16T11:02:56.898Z,107.82
2024-03-16T11:03:54.539Z,104.65
2024-03-16T11:04:54.551Z,105.29
2024-03-16T11:05:54.561Z,106.43
2024-03-16T11:06:54.571Z,107.53
2024-03-16T11:07:54.575Z,107.98
2024-03-16T11:08:54.595Z,108.96
2024-03-16T11:09:54.586Z,113.42
2024-03-16T11:10:54.657Z,121.81
2024-03-16T11:11:54.583Z,123.82
2024-03-16T11:12:54.641Z,121.99
2024-03-16T11:13:55.724Z,120.59
2024-03-16T11:14:54.623Z,122.41
2024-03-16T11:15:54.634Z,118.74
2024-03-16T11:16:54.650Z,115.05
2024-03-16T11:17:54.655Z,111.93
2024-03-16T11:18:54.636Z,109.33
2024-03-16T11:19:56.047Z,108.18
2024-03-16T11:20:54.659Z,108.33
2024-03-16T11:21:54.683Z,110.80
2024-03-16T11:22:54.681Z,110.79
2024-03-16T11:23:54.673Z,109.27
2024-03-16T11:24:54.681Z,103.11
2024-03-16T11:25:54.702Z,102.18
2024-03-16T11:26:54.700Z,96.79
2024-03-16T11:27:54.710Z,101.89
2024-03-16T11:28:54.734Z,107.38
2024-03-16T11:29:54.704Z,98.51
2024-03-16T11:30:54.694Z,93.28
2024-03-16T11:31:54.779Z,100.83
2024-03-16T11:32:54.747Z,106.77
2024-03-16T11:33:54.805Z,112.27
2024-03-16T11:34:54.779Z,118.60
2024-03-16T11:35:54.822Z,118.42
2024-03-16T11:36:54.822Z,113.02
2024-03-16T11:37:54.879Z,116.57
2024-03-16T11:38:54.914Z,120.12
2024-03-16T11:39:54.921Z,122.92
2024-03-16T11:40:54.983Z,123.05
2024-03-16T11:41:55.023Z,123.92
2024-03-16T11:42:55.044Z,125.13
2024-03-16T11:43:55.126Z,125.72
2024-03-16T11:44:55.179Z,128.06
2024-03-16T11:45:55.239Z,130.48
2024-03-16T11:46:55.302Z,125.58
2024-03-16T11:47:56.019Z,127.72
2024-03-16T11:48:55.491Z,125.36
2024-03-16T11:49:55.509Z,133.91
2024-03-16T11:50:55.592Z,134.43
2024-03-16T11:51:55.806Z,127.20
2024-03-16T11:52:55.723Z,129.04
2024-03-16T11:53:55.802Z,128.30
2024-03-16T11:54:55.859Z,123.89
2024-03-16T11:55:55.907Z,122.95
2024-03-16T11:56:55.924Z,120.16
2024-03-16T11:57:55.966Z,117.61
2024-03-16T11:58:55.993Z,113.54
2024-03-16T11:59:56.133Z,111.65
2024-03-16T12:00:57.702Z,111.06
2024-03-16T12:01:56.266Z,107.02
2024-03-16T12:02:56.124Z,105.60
2024-03-16T12:03:56.185Z,103.51
2024-03-16T12:04:56.115Z,101.28
2024-03-16T12:05:56.097Z,100.78
2024-03-16T12:06:56.097Z,97.93
2024-03-16T12:07:56.103Z,97.47
2024-03-16T12:08:56.122Z,93.25
2024-03-16T12:09:56.113Z,88.44
2024-03-16T12:10:56.186Z,87.74
2024-03-16T12:11:56.141Z,84.18
2024-03-16T12:12:56.129Z,83.24
2024-03-16T12:13:56.149Z,82.23
2024-03-16T12:14:56.100Z,79.54
2024-03-16T12:15:57.035Z,78.55
2024-03-16T12:16:56.103Z,76.26
2024-03-16T12:17:56.098Z,73.32
2024-03-16T12:18:56.105Z,71.22
2024-03-16T12:19:56.123Z,71.32
2024-03-16T12:20:56.114Z,68.89
2024-03-16T12:21:56.130Z,65.75
2024-03-16T12:22:56.139Z,61.86
2024-03-16T12:23:56.157Z,59.45
2024-03-16T12:24:56.150Z,62.38
2024-03-16T12:25:56.111Z,62.07
2024-03-16T12:26:56.105Z,56.67
2024-03-16T12:27:56.193Z,50.05
2024-03-16T12:28:56.153Z,50.09
2024-03-16T12:29:56.158Z,50.00
2024-03-16T12:30:56.158Z,51.38
2024-03-16T12:31:56.161Z,52.97
2024-03-16T12:32:56.179Z,48.72
2024-03-16T12:33:56.112Z,49.61
2024-03-16T12:34:56.133Z,50.74
2024-03-16T12:35:56.111Z,50.44
2024-03-16T12:36:56.209Z,57.43
2024-03-16T12:37:56.138Z,59.86
2024-03-16T12:38:56.145Z,48.44
2024-03-16T12:39:56.156Z,49.91
2024-03-16T12:40:56.118Z,50.00
2024-03-16T12:41:58.413Z,50.00
2024-03-16T12:42:56.154Z,52.92
2024-03-16T12:43:56.164Z,56.50